Calumet Park, Illinois
Current Conditions -  °F | °C
As of 5:55 AM on Thursday 27 Nov 2014 (Local Time) from KIGQ Reporting Station
Overcast Overcast  
Wind Chill: 18°   Ceiling: 8000
Heat Index: 26°   Visibility: 10mi
Dew Point: 19°   Wind: 7mph
Humidity: 77%   Direction: 300°WNW
Pressure: 30.26"   Gusts: NA
Location:  41.6438°N, 87.6214°W
Report Text: KIGQ 271155Z AUTO 30006KT 10SM OVC080 M03/M07 A3026 RMK AO2 T10351070 11016 21035
Loading
Personal Weather Stations






























Interactive Weather Map New forecast layout! Learn more

10-Day Weather Forecast

Advertisements
Track Severe Weather on mobile